sensor_id;sensor_type;location;lat;lon;timestamp;P1;durP1;ratioP1;P2;durP2;ratioP2
72557;SDS011;60583;50.094;8.748;2023-03-01T00:01:07;15.23;;;8.13;;
72557;SDS011;60583;50.094;8.748;2023-03-01T00:03:34;16.67;;;8.15;;
72557;SDS011;60583;50.094;8.748;2023-03-01T00:06:00;13.27;;;7.80;;
72557;SDS011;60583;50.094;8.748;2023-03-01T00:08:27;14.60;;;8.25;;
72557;SDS011;60583;50.094;8.748;2023-03-01T00:11:03;17.25;;;9.80;;
72557;SDS011;60583;50.094;8.748;2023-03-01T00:13:42;14.25;;;7.60;;
72557;SDS011;60583;50.094;8.748;2023-03-01T00:16:10;16.33;;;7.95;;
72557;SDS011;60583;50.094;8.748;2023-03-01T00:18:41;15.68;;;8.07;;
72557;SDS011;60583;50.094;8.748;2023-03-01T00:21:07;14.77;;;7.75;;
72557;SDS011;60583;50.094;8.748;2023-03-01T00:23:35;13.75;;;7.47;;
72557;SDS011;60583;50.094;8.748;2023-03-01T00:26:01;14.38;;;7.70;;
72557;SDS011;60583;50.094;8.748;2023-03-01T00:28:31;14.57;;;7.75;;
72557;SDS011;60583;50.094;8.748;2023-03-01T00:30:56;13.82;;;7.72;;
72557;SDS011;60583;50.094;8.748;2023-03-01T00:33:28;15.13;;;7.90;;
72557;SDS011;60583;50.094;8.748;2023-03-01T00:35:54;15.35;;;8.85;;
72557;SDS011;60583;50.094;8.748;2023-03-01T00:38:19;13.40;;;7.70;;
72557;SDS011;60583;50.094;8.748;2023-03-01T00:40:45;14.73;;;8.00;;
72557;SDS011;60583;50.094;8.748;2023-03-01T00:43:10;13.95;;;7.65;;
72557;SDS011;60583;50.094;8.748;2023-03-01T00:45:36;14.88;;;7.40;;
72557;SDS011;60583;50.094;8.748;2023-03-01T00:48:02;16.42;;;8.27;;
72557;SDS011;60583;50.094;8.748;2023-03-01T00:50:28;14.98;;;8.60;;
72557;SDS011;60583;50.094;8.748;2023-03-01T00:52:54;15.18;;;8.00;;
72557;SDS011;60583;50.094;8.748;2023-03-01T00:55:21;14.43;;;8.45;;
72557;SDS011;60583;50.094;8.748;2023-03-01T00:57:50;14.88;;;8.05;;
72557;SDS011;60583;50.094;8.748;2023-03-01T01:00:15;13.98;;;7.72;;
72557;SDS011;60583;50.094;8.748;2023-03-01T01:02:42;16.05;;;8.30;;
72557;SDS011;60583;50.094;8.748;2023-03-01T01:05:07;14.50;;;7.90;;
72557;SDS011;60583;50.094;8.748;2023-03-01T01:07:34;14.25;;;8.15;;
72557;SDS011;60583;50.094;8.748;2023-03-01T01:09:59;17.00;;;8.45;;
72557;SDS011;60583;50.094;8.748;2023-03-01T01:12:25;15.68;;;8.55;;
72557;SDS011;60583;50.094;8.748;2023-03-01T01:14:51;14.88;;;7.78;;
72557;SDS011;60583;50.094;8.748;2023-03-01T01:17:19;14.32;;;8.45;;
72557;SDS011;60583;50.094;8.748;2023-03-01T01:19:45;15.93;;;8.27;;
72557;SDS011;60583;50.094;8.748;2023-03-01T01:22:11;14.95;;;9.52;;
72557;SDS011;60583;50.094;8.748;2023-03-01T01:24:36;16.67;;;8.32;;
72557;SDS011;60583;50.094;8.748;2023-03-01T01:27:01;14.77;;;8.43;;
72557;SDS011;60583;50.094;8.748;2023-03-01T01:29:27;16.65;;;8.32;;
72557;SDS011;60583;50.094;8.748;2023-03-01T01:31:52;14.50;;;8.15;;
72557;SDS011;60583;50.094;8.748;2023-03-01T01:34:19;16.10;;;8.20;;
72557;SDS011;60583;50.094;8.748;2023-03-01T01:36:49;15.18;;;7.75;;
72557;SDS011;60583;50.094;8.748;2023-03-01T01:39:16;17.48;;;8.48;;
72557;SDS011;60583;50.094;8.748;2023-03-01T01:41:42;17.20;;;8.60;;
72557;SDS011;60583;50.094;8.748;2023-03-01T01:44:18;14.52;;;8.15;;
72557;SDS011;60583;50.094;8.748;2023-03-01T01:52:18;14.15;;;7.85;;
72557;SDS011;60583;50.094;8.748;2023-03-01T01:54:53;17.73;;;7.75;;
72557;SDS011;60583;50.094;8.748;2023-03-01T01:57:27;14.85;;;7.53;;
72557;SDS011;60583;50.094;8.748;2023-03-01T02:00:04;15.00;;;8.02;;
72557;SDS011;60583;50.094;8.748;2023-03-01T02:02:33;15.88;;;8.27;;
72557;SDS011;60583;50.094;8.748;2023-03-01T02:05:02;15.68;;;8.38;;
72557;SDS011;60583;50.094;8.748;2023-03-01T02:07:43;15.43;;;8.02;;
72557;SDS011;60583;50.094;8.748;2023-03-01T02:10:10;16.23;;;8.45;;
72557;SDS011;60583;50.094;8.748;2023-03-01T02:12:35;18.42;;;8.82;;
72557;SDS011;60583;50.094;8.748;2023-03-01T02:15:01;16.17;;;8.27;;
72557;SDS011;60583;50.094;8.748;2023-03-01T02:17:27;16.98;;;8.75;;
72557;SDS011;60583;50.094;8.748;2023-03-01T02:22:45;17.38;;;8.90;;
72557;SDS011;60583;50.094;8.748;2023-03-01T02:27:50;16.23;;;8.32;;
72557;SDS011;60583;50.094;8.748;2023-03-01T02:30:25;15.35;;;7.72;;
72557;SDS011;60583;50.094;8.748;2023-03-01T02:32:51;17.63;;;8.45;;
72557;SDS011;60583;50.094;8.748;2023-03-01T02:35:18;17.45;;;8.63;;
72557;SDS011;60583;50.094;8.748;2023-03-01T02:37:44;18.75;;;8.82;;
72557;SDS011;60583;50.094;8.748;2023-03-01T02:40:11;16.20;;;8.38;;
72557;SDS011;60583;50.094;8.748;2023-03-01T02:42:49;15.90;;;8.25;;
72557;SDS011;60583;50.094;8.748;2023-03-01T02:45:18;17.17;;;8.60;;
72557;SDS011;60583;50.094;8.748;2023-03-01T02:47:44;15.07;;;7.57;;
72557;SDS011;60583;50.094;8.748;2023-03-01T02:56:15;17.23;;;8.63;;
72557;SDS011;60583;50.094;8.748;2023-03-01T02:58:41;16.83;;;8.68;;
72557;SDS011;60583;50.094;8.748;2023-03-01T03:01:16;15.60;;;8.57;;
72557;SDS011;60583;50.094;8.748;2023-03-01T03:03:41;16.13;;;9.05;;
72557;SDS011;60583;50.094;8.748;2023-03-01T03:06:07;16.35;;;9.13;;
72557;SDS011;60583;50.094;8.748;2023-03-01T03:08:33;17.08;;;8.82;;
72557;SDS011;60583;50.094;8.748;2023-03-01T03:10:59;17.92;;;8.80;;
72557;SDS011;60583;50.094;8.748;2023-03-01T03:13:24;16.40;;;8.32;;
72557;SDS011;60583;50.094;8.748;2023-03-01T03:15:53;17.88;;;9.02;;
72557;SDS011;60583;50.094;8.748;2023-03-01T03:18:22;17.25;;;9.05;;
72557;SDS011;60583;50.094;8.748;2023-03-01T03:20:51;15.15;;;8.40;;
72557;SDS011;60583;50.094;8.748;2023-03-01T03:23:19;16.63;;;8.88;;
72557;SDS011;60583;50.094;8.748;2023-03-01T03:25:47;16.40;;;8.93;;
72557;SDS011;60583;50.094;8.748;2023-03-01T03:28:14;16.67;;;8.50;;
72557;SDS011;60583;50.094;8.748;2023-03-01T03:30:41;17.98;;;9.30;;
72557;SDS011;60583;50.094;8.748;2023-03-01T03:33:07;18.85;;;9.65;;
72557;SDS011;60583;50.094;8.748;2023-03-01T03:35:38;18.85;;;9.40;;
72557;SDS011;60583;50.094;8.748;2023-03-01T03:38:09;19.05;;;9.85;;
72557;SDS011;60583;50.094;8.748;2023-03-01T03:40:42;18.77;;;9.68;;
72557;SDS011;60583;50.094;8.748;2023-03-01T03:43:12;17.55;;;9.75;;
72557;SDS011;60583;50.094;8.748;2023-03-01T03:45:40;15.93;;;9.00;;
72557;SDS011;60583;50.094;8.748;2023-03-01T03:48:08;19.38;;;9.43;;
72557;SDS011;60583;50.094;8.748;2023-03-01T03:50:35;19.42;;;9.57;;
72557;SDS011;60583;50.094;8.748;2023-03-01T03:53:01;17.85;;;9.43;;
72557;SDS011;60583;50.094;8.748;2023-03-01T03:55:28;32.03;;;15.23;;
72557;SDS011;60583;50.094;8.748;2023-03-01T03:57:56;28.10;;;13.55;;
72557;SDS011;60583;50.094;8.748;2023-03-01T04:00:27;20.35;;;10.95;;
72557;SDS011;60583;50.094;8.748;2023-03-01T04:02:53;22.17;;;10.43;;
72557;SDS011;60583;50.094;8.748;2023-03-01T04:05:21;18.80;;;9.55;;
72557;SDS011;60583;50.094;8.748;2023-03-01T04:07:47;16.60;;;8.93;;
72557;SDS011;60583;50.094;8.748;2023-03-01T04:10:14;18.95;;;9.48;;
72557;SDS011;60583;50.094;8.748;2023-03-01T04:12:41;19.52;;;9.48;;
72557;SDS011;60583;50.094;8.748;2023-03-01T04:15:10;16.75;;;8.90;;
72557;SDS011;60583;50.094;8.748;2023-03-01T04:17:40;20.83;;;9.70;;
72557;SDS011;60583;50.094;8.748;2023-03-01T04:20:07;17.75;;;10.07;;
72557;SDS011;60583;50.094;8.748;2023-03-01T04:22:45;16.23;;;9.10;;
72557;SDS011;60583;50.094;8.748;2023-03-01T04:25:12;21.27;;;10.65;;
72557;SDS011;60583;50.094;8.748;2023-03-01T04:27:39;17.63;;;9.48;;
72557;SDS011;60583;50.094;8.748;2023-03-01T04:30:05;20.48;;;9.88;;
72557;SDS011;60583;50.094;8.748;2023-03-01T04:32:31;18.55;;;9.38;;
72557;SDS011;60583;50.094;8.748;2023-03-01T04:34:57;17.65;;;8.90;;
72557;SDS011;60583;50.094;8.748;2023-03-01T04:37:22;18.55;;;9.50;;
72557;SDS011;60583;50.094;8.748;2023-03-01T04:39:49;19.45;;;10.13;;
72557;SDS011;60583;50.094;8.748;2023-03-01T04:42:15;22.67;;;11.75;;
72557;SDS011;60583;50.094;8.748;2023-03-01T04:44:42;16.27;;;9.13;;
72557;SDS011;60583;50.094;8.748;2023-03-01T04:47:08;18.70;;;9.30;;
72557;SDS011;60583;50.094;8.748;2023-03-01T04:49:34;18.92;;;9.07;;
72557;SDS011;60583;50.094;8.748;2023-03-01T04:52:00;17.35;;;9.35;;
72557;SDS011;60583;50.094;8.748;2023-03-01T04:54:27;19.35;;;9.70;;
72557;SDS011;60583;50.094;8.748;2023-03-01T04:56:53;19.65;;;9.85;;
72557;SDS011;60583;50.094;8.748;2023-03-01T04:59:19;19.75;;;9.13;;
72557;SDS011;60583;50.094;8.748;2023-03-01T05:01:48;22.48;;;11.13;;
72557;SDS011;60583;50.094;8.748;2023-03-01T05:04:14;21.23;;;10.07;;
72557;SDS011;60583;50.094;8.748;2023-03-01T05:06:39;20.25;;;10.05;;
72557;SDS011;60583;50.094;8.748;2023-03-01T05:09:05;20.10;;;9.93;;
72557;SDS011;60583;50.094;8.748;2023-03-01T05:11:31;17.90;;;9.82;;
72557;SDS011;60583;50.094;8.748;2023-03-01T05:14:01;20.60;;;10.38;;
72557;SDS011;60583;50.094;8.748;2023-03-01T05:16:28;18.15;;;8.70;;
72557;SDS011;60583;50.094;8.748;2023-03-01T05:18:53;19.25;;;9.98;;
72557;SDS011;60583;50.094;8.748;2023-03-01T05:21:20;17.77;;;9.27;;
72557;SDS011;60583;50.094;8.748;2023-03-01T05:23:46;19.45;;;9.15;;
72557;SDS011;60583;50.094;8.748;2023-03-01T05:26:12;19.30;;;9.05;;
72557;SDS011;60583;50.094;8.748;2023-03-01T05:28:37;21.50;;;9.52;;
72557;SDS011;60583;50.094;8.748;2023-03-01T05:31:03;21.92;;;10.35;;
72557;SDS011;60583;50.094;8.748;2023-03-01T05:33:37;21.02;;;10.07;;
72557;SDS011;60583;50.094;8.748;2023-03-01T05:36:06;20.02;;;10.13;;
72557;SDS011;60583;50.094;8.748;2023-03-01T05:38:33;18.48;;;9.60;;
72557;SDS011;60583;50.094;8.748;2023-03-01T05:40:59;17.85;;;9.13;;
72557;SDS011;60583;50.094;8.748;2023-03-01T05:43:24;20.15;;;9.70;;
72557;SDS011;60583;50.094;8.748;2023-03-01T05:45:50;21.33;;;9.88;;
72557;SDS011;60583;50.094;8.748;2023-03-01T05:48:16;20.63;;;9.45;;
72557;SDS011;60583;50.094;8.748;2023-03-01T05:50:42;18.75;;;9.30;;
72557;SDS011;60583;50.094;8.748;2023-03-01T05:53:10;18.60;;;9.25;;
72557;SDS011;60583;50.094;8.748;2023-03-01T05:55:46;19.63;;;9.82;;
72557;SDS011;60583;50.094;8.748;2023-03-01T05:58:13;20.00;;;9.25;;
72557;SDS011;60583;50.094;8.748;2023-03-01T06:00:41;18.10;;;8.75;;
72557;SDS011;60583;50.094;8.748;2023-03-01T06:03:09;22.95;;;10.05;;
72557;SDS011;60583;50.094;8.748;2023-03-01T06:05:36;19.52;;;10.07;;
72557;SDS011;60583;50.094;8.748;2023-03-01T06:08:02;20.08;;;10.13;;
72557;SDS011;60583;50.094;8.748;2023-03-01T06:10:28;19.10;;;9.43;;
72557;SDS011;60583;50.094;8.748;2023-03-01T06:12:54;20.88;;;9.52;;
72557;SDS011;60583;50.094;8.748;2023-03-01T06:15:20;18.85;;;9.70;;
72557;SDS011;60583;50.094;8.748;2023-03-01T06:17:46;20.60;;;9.85;;
72557;SDS011;60583;50.094;8.748;2023-03-01T06:20:18;18.35;;;9.00;;
72557;SDS011;60583;50.094;8.748;2023-03-01T06:22:46;18.58;;;10.32;;
72557;SDS011;60583;50.094;8.748;2023-03-01T06:25:13;17.80;;;9.07;;
72557;SDS011;60583;50.094;8.748;2023-03-01T06:27:41;18.48;;;9.73;;
72557;SDS011;60583;50.094;8.748;2023-03-01T06:30:07;19.58;;;10.23;;
72557;SDS011;60583;50.094;8.748;2023-03-01T06:32:35;17.42;;;9.45;;
72557;SDS011;60583;50.094;8.748;2023-03-01T06:35:02;19.38;;;9.27;;
72557;SDS011;60583;50.094;8.748;2023-03-01T06:37:29;17.52;;;8.75;;
72557;SDS011;60583;50.094;8.748;2023-03-01T06:39:54;21.80;;;10.45;;
72557;SDS011;60583;50.094;8.748;2023-03-01T06:42:20;19.10;;;9.27;;
72557;SDS011;60583;50.094;8.748;2023-03-01T06:44:45;20.20;;;8.95;;
72557;SDS011;60583;50.094;8.748;2023-03-01T06:47:11;19.90;;;9.32;;
72557;SDS011;60583;50.094;8.748;2023-03-01T06:49:37;21.90;;;9.80;;
72557;SDS011;60583;50.094;8.748;2023-03-01T06:52:03;19.42;;;9.82;;
72557;SDS011;60583;50.094;8.748;2023-03-01T06:54:28;19.17;;;10.13;;
72557;SDS011;60583;50.094;8.748;2023-03-01T06:56:54;19.38;;;9.73;;
72557;SDS011;60583;50.094;8.748;2023-03-01T06:59:19;17.92;;;9.30;;
72557;SDS011;60583;50.094;8.748;2023-03-01T07:01:45;17.85;;;9.30;;
72557;SDS011;60583;50.094;8.748;2023-03-01T07:04:11;17.77;;;8.90;;
72557;SDS011;60583;50.094;8.748;2023-03-01T07:06:37;17.27;;;9.13;;
72557;SDS011;60583;50.094;8.748;2023-03-01T07:09:02;19.55;;;9.43;;
72557;SDS011;60583;50.094;8.748;2023-03-01T07:11:28;18.42;;;9.10;;
72557;SDS011;60583;50.094;8.748;2023-03-01T07:13:53;20.88;;;9.85;;
72557;SDS011;60583;50.094;8.748;2023-03-01T07:16:20;19.02;;;9.82;;
72557;SDS011;60583;50.094;8.748;2023-03-01T07:18:46;20.10;;;9.85;;
72557;SDS011;60583;50.094;8.748;2023-03-01T07:21:12;17.00;;;8.82;;
72557;SDS011;60583;50.094;8.748;2023-03-01T07:23:39;17.88;;;9.38;;
72557;SDS011;60583;50.094;8.748;2023-03-01T07:26:05;18.48;;;9.70;;
72557;SDS011;60583;50.094;8.748;2023-03-01T07:28:30;18.25;;;10.00;;
72557;SDS011;60583;50.094;8.748;2023-03-01T07:31:00;18.15;;;8.90;;
72557;SDS011;60583;50.094;8.748;2023-03-01T07:33:27;19.02;;;10.50;;
72557;SDS011;60583;50.094;8.748;2023-03-01T07:35:59;17.83;;;9.23;;
72557;SDS011;60583;50.094;8.748;2023-03-01T07:38:25;18.40;;;9.80;;
72557;SDS011;60583;50.094;8.748;2023-03-01T07:40:52;19.35;;;9.80;;
72557;SDS011;60583;50.094;8.748;2023-03-01T07:43:17;17.52;;;9.48;;
72557;SDS011;60583;50.094;8.748;2023-03-01T07:45:43;17.50;;;9.52;;
72557;SDS011;60583;50.094;8.748;2023-03-01T07:48:09;19.75;;;9.35;;
72557;SDS011;60583;50.094;8.748;2023-03-01T07:50:34;19.05;;;10.27;;
72557;SDS011;60583;50.094;8.748;2023-03-01T07:53:00;19.50;;;9.90;;
72557;SDS011;60583;50.094;8.748;2023-03-01T07:55:25;20.48;;;9.05;;
72557;SDS011;60583;50.094;8.748;2023-03-01T07:57:51;20.63;;;9.45;;
72557;SDS011;60583;50.094;8.748;2023-03-01T08:00:16;17.02;;;9.35;;
72557;SDS011;60583;50.094;8.748;2023-03-01T08:02:42;20.52;;;10.48;;
72557;SDS011;60583;50.094;8.748;2023-03-01T08:05:08;22.58;;;10.68;;
72557;SDS011;60583;50.094;8.748;2023-03-01T08:07:35;21.70;;;10.68;;
72557;SDS011;60583;50.094;8.748;2023-03-01T08:10:00;24.83;;;11.63;;
72557;SDS011;60583;50.094;8.748;2023-03-01T08:12:26;21.60;;;11.50;;
72557;SDS011;60583;50.094;8.748;2023-03-01T08:14:53;20.48;;;10.52;;
72557;SDS011;60583;50.094;8.748;2023-03-01T08:17:19;18.23;;;9.55;;
72557;SDS011;60583;50.094;8.748;2023-03-01T08:19:44;17.80;;;9.73;;
72557;SDS011;60583;50.094;8.748;2023-03-01T08:22:10;17.60;;;9.40;;
72557;SDS011;60583;50.094;8.748;2023-03-01T08:24:36;18.92;;;10.38;;
72557;SDS011;60583;50.094;8.748;2023-03-01T08:27:01;19.48;;;10.10;;
72557;SDS011;60583;50.094;8.748;2023-03-01T08:29:28;20.33;;;10.13;;
72557;SDS011;60583;50.094;8.748;2023-03-01T08:31:56;19.02;;;10.13;;
72557;SDS011;60583;50.094;8.748;2023-03-01T08:34:21;17.67;;;10.15;;
72557;SDS011;60583;50.094;8.748;2023-03-01T08:36:48;19.63;;;10.27;;
72557;SDS011;60583;50.094;8.748;2023-03-01T08:39:15;17.48;;;9.80;;
72557;SDS011;60583;50.094;8.748;2023-03-01T08:41:43;17.88;;;9.35;;
72557;SDS011;60583;50.094;8.748;2023-03-01T08:44:09;16.90;;;9.32;;
72557;SDS011;60583;50.094;8.748;2023-03-01T08:46:37;19.33;;;10.63;;
72557;SDS011;60583;50.094;8.748;2023-03-01T08:49:07;19.35;;;10.32;;
72557;SDS011;60583;50.094;8.748;2023-03-01T08:51:40;17.45;;;9.23;;
72557;SDS011;60583;50.094;8.748;2023-03-01T08:54:07;18.35;;;9.88;;
72557;SDS011;60583;50.094;8.748;2023-03-01T08:56:36;18.25;;;10.15;;
72557;SDS011;60583;50.094;8.748;2023-03-01T08:59:02;19.25;;;10.25;;
72557;SDS011;60583;50.094;8.748;2023-03-01T09:01:27;17.13;;;11.20;;
72557;SDS011;60583;50.094;8.748;2023-03-01T09:03:53;18.65;;;10.07;;
72557;SDS011;60583;50.094;8.748;2023-03-01T09:06:18;17.90;;;9.73;;
72557;SDS011;60583;50.094;8.748;2023-03-01T09:08:45;17.73;;;9.68;;
72557;SDS011;60583;50.094;8.748;2023-03-01T09:11:12;18.63;;;9.90;;
72557;SDS011;60583;50.094;8.748;2023-03-01T09:13:42;18.05;;;9.95;;
72557;SDS011;60583;50.094;8.748;2023-03-01T09:16:08;18.70;;;10.60;;
72557;SDS011;60583;50.094;8.748;2023-03-01T09:18:34;17.48;;;9.98;;
72557;SDS011;60583;50.094;8.748;2023-03-01T09:21:11;18.10;;;10.73;;
72557;SDS011;60583;50.094;8.748;2023-03-01T09:23:41;18.42;;;10.60;;
72557;SDS011;60583;50.094;8.748;2023-03-01T09:26:08;19.10;;;10.40;;
72557;SDS011;60583;50.094;8.748;2023-03-01T09:28:36;19.73;;;10.63;;
72557;SDS011;60583;50.094;8.748;2023-03-01T09:31:02;18.20;;;10.90;;
72557;SDS011;60583;50.094;8.748;2023-03-01T09:33:29;18.02;;;10.63;;
72557;SDS011;60583;50.094;8.748;2023-03-01T09:35:58;18.35;;;10.90;;
72557;SDS011;60583;50.094;8.748;2023-03-01T09:38:25;21.50;;;11.00;;
72557;SDS011;60583;50.094;8.748;2023-03-01T09:40:51;18.55;;;11.02;;
72557;SDS011;60583;50.094;8.748;2023-03-01T09:43:29;20.10;;;11.55;;
72557;SDS011;60583;50.094;8.748;2023-03-01T09:46:08;19.15;;;10.38;;
72557;SDS011;60583;50.094;8.748;2023-03-01T09:48:41;18.98;;;10.43;;
72557;SDS011;60583;50.094;8.748;2023-03-01T09:51:18;18.23;;;10.90;;
72557;SDS011;60583;50.094;8.748;2023-03-01T09:53:48;18.15;;;10.13;;
72557;SDS011;60583;50.094;8.748;2023-03-01T10:01:31;16.70;;;10.20;;
72557;SDS011;60583;50.094;8.748;2023-03-01T10:07:17;19.25;;;11.02;;
72557;SDS011;60583;50.094;8.748;2023-03-01T10:09:55;16.73;;;11.45;;
72557;SDS011;60583;50.094;8.748;2023-03-01T10:12:22;19.35;;;11.90;;
72557;SDS011;60583;50.094;8.748;2023-03-01T10:20:22;17.35;;;11.73;;
72557;SDS011;60583;50.094;8.748;2023-03-01T10:22:49;16.92;;;12.13;;
72557;SDS011;60583;50.094;8.748;2023-03-01T10:25:20;18.20;;;12.25;;
72557;SDS011;60583;50.094;8.748;2023-03-01T10:27:52;17.35;;;12.13;;
72557;SDS011;60583;50.094;8.748;2023-03-01T10:30:21;17.73;;;12.77;;
72557;SDS011;60583;50.094;8.748;2023-03-01T10:33:15;17.23;;;12.02;;
72557;SDS011;60583;50.094;8.748;2023-03-01T10:35:45;16.25;;;11.50;;
72557;SDS011;60583;50.094;8.748;2023-03-01T10:38:11;16.95;;;12.68;;
72557;SDS011;60583;50.094;8.748;2023-03-01T10:40:49;19.92;;;12.57;;
72557;SDS011;60583;50.094;8.748;2023-03-01T10:43:15;17.27;;;12.50;;
72557;SDS011;60583;50.094;8.748;2023-03-01T10:45:41;17.40;;;12.32;;
72557;SDS011;60583;50.094;8.748;2023-03-01T10:48:23;16.80;;;12.15;;
72557;SDS011;60583;50.094;8.748;2023-03-01T10:53:36;15.77;;;11.30;;
72557;SDS011;60583;50.094;8.748;2023-03-01T10:56:06;15.63;;;12.13;;
72557;SDS011;60583;50.094;8.748;2023-03-01T10:58:35;16.05;;;11.93;;
72557;SDS011;60583;50.094;8.748;2023-03-01T11:03:42;14.85;;;12.35;;
72557;SDS011;60583;50.094;8.748;2023-03-01T11:11:21;14.50;;;11.32;;
72557;SDS011;60583;50.094;8.748;2023-03-01T11:13:57;15.20;;;10.90;;
72557;SDS011;60583;50.094;8.748;2023-03-01T11:16:25;13.50;;;10.85;;
72557;SDS011;60583;50.094;8.748;2023-03-01T11:18:57;16.10;;;11.05;;
72557;SDS011;60583;50.094;8.748;2023-03-01T11:21:25;14.10;;;11.23;;
72557;SDS011;60583;50.094;8.748;2023-03-01T11:23:53;13.73;;;10.90;;
72557;SDS011;60583;50.094;8.748;2023-03-01T11:26:19;12.73;;;10.88;;
72557;SDS011;60583;50.094;8.748;2023-03-01T11:28:48;13.45;;;11.13;;
72557;SDS011;60583;50.094;8.748;2023-03-01T11:31:17;12.60;;;10.25;;
72557;SDS011;60583;50.094;8.748;2023-03-01T11:39:15;15.20;;;10.90;;
72557;SDS011;60583;50.094;8.748;2023-03-01T11:41:49;13.35;;;10.77;;
72557;SDS011;60583;50.094;8.748;2023-03-01T11:44:24;14.05;;;10.60;;
72557;SDS011;60583;50.094;8.748;2023-03-01T11:50:45;13.48;;;10.60;;
72557;SDS011;60583;50.094;8.748;2023-03-01T11:52:52;13.25;;;9.70;;
72557;SDS011;60583;50.094;8.748;2023-03-01T12:01:32;14.02;;;10.07;;
72557;SDS011;60583;50.094;8.748;2023-03-01T12:26:47;12.35;;;9.48;;
72557;SDS011;60583;50.094;8.748;2023-03-01T12:29:34;12.88;;;9.15;;
72557;SDS011;60583;50.094;8.748;2023-03-01T12:32:29;13.30;;;9.77;;
72557;SDS011;60583;50.094;8.748;2023-03-01T12:37:59;12.65;;;9.80;;
72557;SDS011;60583;50.094;8.748;2023-03-01T12:48:41;11.90;;;8.98;;
72557;SDS011;60583;50.094;8.748;2023-03-01T12:51:14;11.70;;;8.90;;
72557;SDS011;60583;50.094;8.748;2023-03-01T12:53:44;13.50;;;9.48;;
72557;SDS011;60583;50.094;8.748;2023-03-01T12:56:13;13.23;;;9.38;;
72557;SDS011;60583;50.094;8.748;2023-03-01T13:04:23;12.40;;;9.00;;
72557;SDS011;60583;50.094;8.748;2023-03-01T13:07:14;11.40;;;8.55;;
72557;SDS011;60583;50.094;8.748;2023-03-01T13:09:49;10.52;;;8.57;;
72557;SDS011;60583;50.094;8.748;2023-03-01T13:17:49;12.65;;;8.68;;
72557;SDS011;60583;50.094;8.748;2023-03-01T13:20:16;10.40;;;7.65;;
72557;SDS011;60583;50.094;8.748;2023-03-01T13:22:45;11.57;;;8.90;;
72557;SDS011;60583;50.094;8.748;2023-03-01T13:25:13;13.77;;;10.55;;
72557;SDS011;60583;50.094;8.748;2023-03-01T13:27:43;11.20;;;8.60;;
72557;SDS011;60583;50.094;8.748;2023-03-01T13:35:48;11.13;;;7.70;;
72557;SDS011;60583;50.094;8.748;2023-03-01T13:41:11;11.38;;;7.70;;
72557;SDS011;60583;50.094;8.748;2023-03-01T13:43:42;10.73;;;6.82;;
72557;SDS011;60583;50.094;8.748;2023-03-01T13:46:15;10.90;;;7.00;;
72557;SDS011;60583;50.094;8.748;2023-03-01T13:48:44;13.07;;;7.80;;
72557;SDS011;60583;50.094;8.748;2023-03-01T13:51:13;13.60;;;8.23;;
72557;SDS011;60583;50.094;8.748;2023-03-01T13:53:40;13.57;;;8.57;;
72557;SDS011;60583;50.094;8.748;2023-03-01T13:56:25;12.38;;;7.75;;
72557;SDS011;60583;50.094;8.748;2023-03-01T13:58:54;11.18;;;7.20;;
72557;SDS011;60583;50.094;8.748;2023-03-01T14:01:29;9.70;;;6.45;;
72557;SDS011;60583;50.094;8.748;2023-03-01T14:04:01;12.00;;;6.78;;
72557;SDS011;60583;50.094;8.748;2023-03-01T14:06:32;18.80;;;9.80;;
72557;SDS011;60583;50.094;8.748;2023-03-01T14:09:13;14.50;;;8.35;;
72557;SDS011;60583;50.094;8.748;2023-03-01T14:15:00;11.27;;;6.22;;
72557;SDS011;60583;50.094;8.748;2023-03-01T14:20:23;12.77;;;6.65;;
72557;SDS011;60583;50.094;8.748;2023-03-01T14:22:54;10.48;;;6.18;;
72557;SDS011;60583;50.094;8.748;2023-03-01T14:25:26;11.32;;;6.47;;
72557;SDS011;60583;50.094;8.748;2023-03-01T14:28:35;12.13;;;7.43;;
72557;SDS011;60583;50.094;8.748;2023-03-01T14:30:47;11.68;;;7.15;;
72557;SDS011;60583;50.094;8.748;2023-03-01T14:33:25;12.27;;;7.22;;
72557;SDS011;60583;50.094;8.748;2023-03-01T14:36:05;12.43;;;6.90;;
72557;SDS011;60583;50.094;8.748;2023-03-01T14:38:43;12.10;;;7.00;;
72557;SDS011;60583;50.094;8.748;2023-03-01T14:41:20;12.75;;;6.97;;
72557;SDS011;60583;50.094;8.748;2023-03-01T14:43:51;12.15;;;6.82;;
72557;SDS011;60583;50.094;8.748;2023-03-01T14:48:50;11.65;;;7.38;;
72557;SDS011;60583;50.094;8.748;2023-03-01T14:51:18;11.15;;;7.05;;
72557;SDS011;60583;50.094;8.748;2023-03-01T14:53:43;11.93;;;7.03;;
72557;SDS011;60583;50.094;8.748;2023-03-01T14:56:13;10.77;;;7.00;;
72557;SDS011;60583;50.094;8.748;2023-03-01T14:58:42;14.13;;;8.02;;
72557;SDS011;60583;50.094;8.748;2023-03-01T15:01:13;14.35;;;8.65;;
72557;SDS011;60583;50.094;8.748;2023-03-01T15:03:44;21.15;;;11.70;;
72557;SDS011;60583;50.094;8.748;2023-03-01T15:06:14;12.32;;;7.32;;
72557;SDS011;60583;50.094;8.748;2023-03-01T15:08:44;10.60;;;7.10;;
72557;SDS011;60583;50.094;8.748;2023-03-01T15:11:23;10.38;;;6.72;;
72557;SDS011;60583;50.094;8.748;2023-03-01T15:13:52;13.45;;;7.05;;
72557;SDS011;60583;50.094;8.748;2023-03-01T15:16:18;11.27;;;6.75;;
72557;SDS011;60583;50.094;8.748;2023-03-01T15:21:26;12.77;;;7.18;;
72557;SDS011;60583;50.094;8.748;2023-03-01T15:24:02;11.85;;;6.75;;
72557;SDS011;60583;50.094;8.748;2023-03-01T15:26:43;15.20;;;8.93;;
72557;SDS011;60583;50.094;8.748;2023-03-01T15:29:15;13.00;;;8.45;;
72557;SDS011;60583;50.094;8.748;2023-03-01T15:31:42;14.88;;;8.05;;
72557;SDS011;60583;50.094;8.748;2023-03-01T15:34:21;13.13;;;7.35;;
72557;SDS011;60583;50.094;8.748;2023-03-01T15:36:50;14.55;;;8.05;;
72557;SDS011;60583;50.094;8.748;2023-03-01T15:42:05;11.57;;;6.97;;
72557;SDS011;60583;50.094;8.748;2023-03-01T15:44:34;12.65;;;6.80;;
72557;SDS011;60583;50.094;8.748;2023-03-01T15:47:01;12.88;;;7.40;;
72557;SDS011;60583;50.094;8.748;2023-03-01T15:49:46;11.82;;;7.32;;
72557;SDS011;60583;50.094;8.748;2023-03-01T15:52:13;12.98;;;7.68;;
72557;SDS011;60583;50.094;8.748;2023-03-01T15:54:44;13.98;;;7.57;;
72557;SDS011;60583;50.094;8.748;2023-03-01T15:57:14;12.43;;;6.68;;
72557;SDS011;60583;50.094;8.748;2023-03-01T15:59:40;15.38;;;7.50;;
72557;SDS011;60583;50.094;8.748;2023-03-01T16:02:11;12.70;;;7.30;;
72557;SDS011;60583;50.094;8.748;2023-03-01T16:04:38;11.40;;;7.15;;
72557;SDS011;60583;50.094;8.748;2023-03-01T16:07:04;12.75;;;6.70;;
72557;SDS011;60583;50.094;8.748;2023-03-01T16:09:30;12.93;;;7.30;;
72557;SDS011;60583;50.094;8.748;2023-03-01T16:11:55;11.80;;;6.72;;
72557;SDS011;60583;50.094;8.748;2023-03-01T16:14:21;12.90;;;7.03;;
72557;SDS011;60583;50.094;8.748;2023-03-01T16:16:47;11.65;;;6.70;;
72557;SDS011;60583;50.094;8.748;2023-03-01T16:19:14;13.52;;;7.28;;
72557;SDS011;60583;50.094;8.748;2023-03-01T16:21:40;12.02;;;7.22;;
72557;SDS011;60583;50.094;8.748;2023-03-01T16:24:08;14.35;;;8.75;;
72557;SDS011;60583;50.094;8.748;2023-03-01T16:26:34;14.98;;;7.60;;
72557;SDS011;60583;50.094;8.748;2023-03-01T16:29:02;14.18;;;8.52;;
72557;SDS011;60583;50.094;8.748;2023-03-01T16:31:28;15.15;;;8.55;;
72557;SDS011;60583;50.094;8.748;2023-03-01T16:33:54;16.92;;;10.50;;
72557;SDS011;60583;50.094;8.748;2023-03-01T16:36:21;24.55;;;11.80;;
72557;SDS011;60583;50.094;8.748;2023-03-01T16:38:51;29.08;;;16.02;;
72557;SDS011;60583;50.094;8.748;2023-03-01T16:41:18;17.67;;;9.63;;
72557;SDS011;60583;50.094;8.748;2023-03-01T16:43:46;21.20;;;10.80;;